Time;durP1;ratioP1;P1;durP2;ratioP2;P2;SDS_P1;SDS_P2;PMS_P1;PMS_P2;Temp;Humidity;BMP_temperature;BMP_pressure;BME280_temperature;BME280_humidity;BME280_pressure;Samples;Min_cycle;Max_cycle;Signal;HPM_P1;HPM_P2
2021/03/10 00:01:52;;;;;;;43.58;20.42;;;;;;;;;;5052111;28;20021;-65
2021/03/10 00:04:17;;;;;;;36.25;18.42;;;;;;;;;;5052302;28;20374;-63
2021/03/10 00:06:42;;;;;;;37.00;20.50;;;;;;;;;;5051240;28;20448;-63
2021/03/10 00:09:07;;;;;;;32.25;18.40;;;;;;;;;;5051794;28;20025;-63
2021/03/10 00:11:32;;;;;;;38.38;19.65;;;;;;;;;;5051698;28;20021;-63
2021/03/10 00:13:58;;;;;;;36.83;19.88;;;;;;;;;;5050686;28;20017;-63
2021/03/10 00:16:23;;;;;;;37.38;20.38;;;;;;;;;;5050974;28;20017;-63
2021/03/10 00:18:48;;;;;;;37.92;19.17;;;;;;;;;;5051757;28;20075;-65
2021/03/10 00:21:13;;;;;;;46.17;19.58;;;;;;;;;;5051406;28;20021;-64
2021/03/10 00:23:38;;;;;;;35.55;19.33;;;;;;;;;;5064107;28;20028;-65
2021/03/10 00:26:03;;;;;;;40.08;19.83;;;;;;;;;;5051238;28;20102;-65
2021/03/10 00:28:29;;;;;;;33.28;18.92;;;;;;;;;;5051435;28;20398;-65
2021/03/10 00:30:54;;;;;;;34.20;19.33;;;;;;;;;;5051112;28;20025;-65
2021/03/10 00:33:19;;;;;;;37.47;17.55;;;;;;;;;;5051263;28;20036;-65
2021/03/10 00:35:44;;;;;;;40.38;19.23;;;;;;;;;;5050722;28;20025;-65
2021/03/10 00:38:10;;;;;;;33.70;18.05;;;;;;;;;;5050798;28;20170;-65
2021/03/10 00:40:35;;;;;;;35.17;19.10;;;;;;;;;;5053250;28;20104;-65
2021/03/10 00:43:00;;;;;;;43.35;20.77;;;;;;;;;;5071621;28;20025;-65
2021/03/10 00:45:25;;;;;;;36.10;19.63;;;;;;;;;;5065600;28;20027;-65
2021/03/10 00:47:54;;;;;;;40.78;19.70;;;;;;;;;;5051141;28;20020;-65
2021/03/10 00:50:20;;;;;;;38.20;20.02;;;;;;;;;;5050966;28;20021;-65
2021/03/10 00:52:45;;;;;;;42.88;21.50;;;;;;;;;;5051498;28;20358;-65
2021/03/10 00:55:11;;;;;;;38.33;21.40;;;;;;;;;;5051073;28;20025;-65
2021/03/10 00:57:36;;;;;;;36.83;20.52;;;;;;;;;;5051126;28;20462;-65
2021/03/10 01:00:02;;;;;;;36.80;20.15;;;;;;;;;;5050370;28;20021;-65
2021/03/10 01:02:27;;;;;;;36.90;20.30;;;;;;;;;;5057206;28;20469;-65
2021/03/10 01:04:52;;;;;;;40.17;20.73;;;;;;;;;;5061875;28;20036;-65
2021/03/10 01:07:17;;;;;;;37.78;19.40;;;;;;;;;;5051322;28;20071;-65
2021/03/10 01:09:42;;;;;;;41.20;20.52;;;;;;;;;;5050738;28;20017;-65
2021/03/10 01:12:08;;;;;;;37.28;20.13;;;;;;;;;;5052007;28;20126;-65
2021/03/10 01:14:33;;;;;;;38.72;20.80;;;;;;;;;;5050538;28;20401;-65
2021/03/10 01:16:58;;;;;;;38.70;19.75;;;;;;;;;;5050045;28;20028;-65
2021/03/10 01:19:23;;;;;;;40.40;19.92;;;;;;;;;;5062426;28;20020;-65
2021/03/10 01:21:49;;;;;;;38.35;20.92;;;;;;;;;;5057389;28;20463;-65
2021/03/10 01:24:14;;;;;;;36.17;20.23;;;;;;;;;;5050670;28;20025;-65
2021/03/10 01:26:39;;;;;;;39.08;20.02;;;;;;;;;;5050586;28;20028;-65
2021/03/10 01:29:04;;;;;;;39.55;19.45;;;;;;;;;;5050944;28;20655;-64
2021/03/10 01:31:29;;;;;;;38.72;20.30;;;;;;;;;;5052565;28;20104;-64
2021/03/10 01:33:55;;;;;;;39.38;20.30;;;;;;;;;;5050830;28;20745;-64
2021/03/10 01:36:20;;;;;;;39.50;20.58;;;;;;;;;;5050188;28;20028;-64
2021/03/10 01:38:45;;;;;;;43.53;21.80;;;;;;;;;;5050028;28;20088;-64
2021/03/10 01:41:13;;;;;;;50.40;21.63;;;;;;;;;;5050019;28;20496;-64
2021/03/10 01:43:39;;;;;;;41.90;20.25;;;;;;;;;;5050664;28;20021;-64
2021/03/10 01:46:04;;;;;;;40.30;20.48;;;;;;;;;;5050396;28;20020;-64
2021/03/10 01:48:29;;;;;;;36.47;19.08;;;;;;;;;;5050324;28;20021;-64
2021/03/10 01:50:54;;;;;;;37.20;18.90;;;;;;;;;;5049671;28;20114;-64
2021/03/10 01:53:20;;;;;;;45.45;21.45;;;;;;;;;;5050690;28;20031;-64
2021/03/10 01:55:46;;;;;;;41.92;19.92;;;;;;;;;;5048875;28;20434;-64
2021/03/10 01:58:12;;;;;;;40.33;21.23;;;;;;;;;;5049424;28;20013;-64
2021/03/10 02:00:37;;;;;;;37.17;20.70;;;;;;;;;;5050700;28;20040;-64
2021/03/10 02:03:02;;;;;;;43.22;21.80;;;;;;;;;;5050361;28;20017;-64
2021/03/10 02:05:28;;;;;;;44.20;21.08;;;;;;;;;;5049699;28;20021;-64
2021/03/10 02:08:02;;;;;;;45.17;22.40;;;;;;;;;;5049865;28;20020;-64
2021/03/10 02:10:33;;;;;;;39.83;21.27;;;;;;;;;;5050176;28;20377;-64
2021/03/10 02:13:04;;;;;;;39.83;20.58;;;;;;;;;;5049434;28;20028;-64
2021/03/10 02:15:29;;;;;;;40.40;21.75;;;;;;;;;;5050959;28;20381;-64
2021/03/10 02:17:57;;;;;;;41.88;20.83;;;;;;;;;;5050115;28;20031;-64
2021/03/10 02:20:36;;;;;;;42.80;19.95;;;;;;;;;;5064495;28;20424;-64
2021/03/10 02:23:20;;;;;;;43.85;20.90;;;;;;;;;;5050265;28;20086;-64
2021/03/10 02:25:54;;;;;;;40.63;20.17;;;;;;;;;;5049905;28;20093;-65
2021/03/10 02:28:20;;;;;;;37.17;19.73;;;;;;;;;;5049997;28;20488;-64
2021/03/10 02:30:49;;;;;;;38.78;20.35;;;;;;;;;;5053818;28;20099;-65
2021/03/10 02:33:17;;;;;;;42.72;22.30;;;;;;;;;;5070263;28;20099;-65
2021/03/10 02:35:46;;;;;;;40.60;20.08;;;;;;;;;;5063944;28;20025;-65
2021/03/10 02:38:16;;;;;;;45.47;21.93;;;;;;;;;;5049720;28;20103;-65
2021/03/10 02:40:41;;;;;;;43.53;21.40;;;;;;;;;;5049800;28;20028;-65
2021/03/10 02:43:07;;;;;;;43.22;21.35;;;;;;;;;;5050249;28;20033;-65
2021/03/10 02:45:33;;;;;;;44.47;21.40;;;;;;;;;;5049032;28;20024;-65
2021/03/10 02:47:59;;;;;;;44.60;21.83;;;;;;;;;;5048686;28;20021;-64
2021/03/10 02:50:25;;;;;;;39.60;20.48;;;;;;;;;;5048977;28;20067;-64
2021/03/10 02:52:51;;;;;;;40.13;20.45;;;;;;;;;;5048875;28;20029;-64
2021/03/10 02:55:16;;;;;;;46.95;22.67;;;;;;;;;;5049627;28;20413;-65
2021/03/10 02:57:41;;;;;;;47.78;23.08;;;;;;;;;;5048555;28;20095;-65
2021/03/10 03:00:12;;;;;;;39.67;22.05;;;;;;;;;;5049537;28;20032;-64
2021/03/10 03:02:37;;;;;;;44.58;21.88;;;;;;;;;;5049168;28;20547;-64
2021/03/10 03:05:04;;;;;;;44.25;20.67;;;;;;;;;;5049119;28;20041;-66
2021/03/10 03:07:29;;;;;;;40.17;19.83;;;;;;;;;;5050121;28;20025;-64
2021/03/10 03:09:54;;;;;;;42.08;21.45;;;;;;;;;;5052694;28;20071;-65
2021/03/10 03:12:19;;;;;;;46.97;21.90;;;;;;;;;;5054786;28;20070;-65
2021/03/10 03:14:45;;;;;;;41.13;20.08;;;;;;;;;;5052641;28;20347;-65
2021/03/10 03:17:11;;;;;;;40.10;19.85;;;;;;;;;;5052697;28;20427;-64
2021/03/10 03:19:36;;;;;;;39.65;20.80;;;;;;;;;;5052604;28;20031;-64
2021/03/10 03:22:03;;;;;;;38.10;19.67;;;;;;;;;;5052799;28;20029;-64
2021/03/10 03:24:29;;;;;;;39.67;20.42;;;;;;;;;;5052810;28;20047;-64
2021/03/10 03:26:55;;;;;;;39.33;20.27;;;;;;;;;;5051830;28;20012;-65
2021/03/10 03:29:20;;;;;;;37.45;18.60;;;;;;;;;;5052468;28;20094;-65
2021/03/10 03:31:45;;;;;;;40.80;19.75;;;;;;;;;;5052721;28;20047;-64
2021/03/10 03:34:10;;;;;;;38.67;20.08;;;;;;;;;;5052931;28;20025;-65
2021/03/10 03:36:36;;;;;;;37.83;19.83;;;;;;;;;;5052071;28;20031;-63
2021/03/10 03:39:03;;;;;;;43.80;20.02;;;;;;;;;;5052423;28;20047;-65
2021/03/10 03:41:28;;;;;;;40.35;20.98;;;;;;;;;;5055540;28;20096;-64
2021/03/10 03:43:54;;;;;;;41.70;21.05;;;;;;;;;;5054560;28;20108;-66
2021/03/10 03:46:19;;;;;;;46.10;22.90;;;;;;;;;;5052228;28;20096;-65
2021/03/10 03:48:44;;;;;;;40.25;21.08;;;;;;;;;;5051898;28;20028;-65
2021/03/10 03:51:29;;;;;;;44.13;20.80;;;;;;;;;;5052065;28;20025;-66
2021/03/10 03:53:55;;;;;;;39.90;20.50;;;;;;;;;;5051834;28;20029;-64
2021/03/10 03:56:20;;;;;;;41.15;20.35;;;;;;;;;;5052207;28;20389;-66
2021/03/10 03:58:45;;;;;;;41.85;20.50;;;;;;;;;;5051789;28;20028;-66
2021/03/10 04:01:10;;;;;;;40.08;20.70;;;;;;;;;;5051381;28;20021;-65
2021/03/10 04:03:35;;;;;;;40.10;19.92;;;;;;;;;;5051695;28;20024;-66
2021/03/10 04:06:01;;;;;;;39.28;17.80;;;;;;;;;;5052033;28;20025;-65
2021/03/10 04:08:26;;;;;;;42.42;19.25;;;;;;;;;;5051433;28;20052;-65
2021/03/10 04:10:51;;;;;;;40.03;19.30;;;;;;;;;;5051508;28;20020;-64
2021/03/10 04:13:16;;;;;;;37.72;19.38;;;;;;;;;;5053287;28;20028;-65
2021/03/10 04:15:41;;;;;;;44.80;20.08;;;;;;;;;;5051351;28;20524;-64
2021/03/10 04:18:06;;;;;;;47.83;22.60;;;;;;;;;;5051619;28;20043;-64
2021/03/10 04:20:32;;;;;;;39.17;19.98;;;;;;;;;;5049437;28;20028;-63
2021/03/10 04:22:57;;;;;;;40.45;19.15;;;;;;;;;;5052220;28;20020;-63
2021/03/10 04:25:22;;;;;;;39.50;19.35;;;;;;;;;;5052009;28;20032;-64
2021/03/10 04:27:47;;;;;;;39.10;20.23;;;;;;;;;;5052176;28;20084;-63
2021/03/10 04:30:13;;;;;;;47.45;21.80;;;;;;;;;;5052037;28;20524;-63
2021/03/10 04:32:38;;;;;;;42.33;20.52;;;;;;;;;;5051939;28;20024;-66
2021/03/10 04:35:04;;;;;;;43.60;21.85;;;;;;;;;;5051830;28;20083;-63
2021/03/10 04:37:29;;;;;;;43.78;21.40;;;;;;;;;;5051696;28;20075;-63
2021/03/10 04:39:55;;;;;;;36.83;19.20;;;;;;;;;;5051798;28;20029;-63
2021/03/10 04:42:20;;;;;;;44.28;20.60;;;;;;;;;;5051637;28;20048;-63
2021/03/10 04:44:45;;;;;;;35.53;17.90;;;;;;;;;;5051555;28;20017;-63
2021/03/10 04:47:10;;;;;;;43.47;20.52;;;;;;;;;;5051307;28;20029;-63
2021/03/10 04:49:35;;;;;;;46.03;22.23;;;;;;;;;;5051605;28;20107;-63
2021/03/10 04:52:01;;;;;;;44.30;21.55;;;;;;;;;;5051672;28;20021;-65
2021/03/10 04:54:26;;;;;;;42.60;20.17;;;;;;;;;;5051557;28;20021;-64
2021/03/10 04:56:51;;;;;;;51.35;20.80;;;;;;;;;;5051355;28;20025;-64
2021/03/10 04:59:17;;;;;;;42.97;22.00;;;;;;;;;;5051347;28;20024;-64
2021/03/10 05:01:42;;;;;;;39.15;21.02;;;;;;;;;;5051635;28;20112;-63
2021/03/10 05:04:07;;;;;;;37.63;18.77;;;;;;;;;;5051553;28;20028;-64
2021/03/10 05:06:32;;;;;;;42.28;19.13;;;;;;;;;;5051537;28;20031;-65
2021/03/10 05:08:58;;;;;;;48.33;20.10;;;;;;;;;;5050605;28;20136;-64
2021/03/10 05:11:23;;;;;;;38.50;20.30;;;;;;;;;;5051254;28;20458;-64
2021/03/10 05:13:49;;;;;;;43.40;21.08;;;;;;;;;;5052628;28;20025;-64
2021/03/10 05:16:14;;;;;;;36.35;16.90;;;;;;;;;;5048930;28;20020;-63
2021/03/10 05:18:40;;;;;;;39.83;19.02;;;;;;;;;;5050121;28;20073;-65
2021/03/10 05:21:05;;;;;;;38.30;20.33;;;;;;;;;;5050609;28;20028;-64
2021/03/10 05:23:30;;;;;;;47.72;22.08;;;;;;;;;;5050368;28;20143;-63
2021/03/10 05:25:56;;;;;;;39.25;21.13;;;;;;;;;;5050638;28;20049;-63
2021/03/10 05:28:21;;;;;;;37.42;19.58;;;;;;;;;;5050894;28;20479;-64
2021/03/10 05:30:46;;;;;;;32.33;16.45;;;;;;;;;;5050184;28;20503;-64
2021/03/10 05:33:11;;;;;;;35.45;17.63;;;;;;;;;;5050143;28;20035;-64
2021/03/10 05:35:36;;;;;;;27.40;14.18;;;;;;;;;;5050150;28;20033;-64
2021/03/10 05:38:01;;;;;;;34.72;18.33;;;;;;;;;;5049570;28;20025;-64
2021/03/10 05:40:27;;;;;;;32.63;17.80;;;;;;;;;;5050247;28;20100;-64
2021/03/10 05:42:52;;;;;;;39.55;20.33;;;;;;;;;;5050023;28;20462;-64
2021/03/10 05:45:19;;;;;;;39.25;20.55;;;;;;;;;;5050285;28;20024;-64
2021/03/10 05:47:44;;;;;;;34.88;18.77;;;;;;;;;;5049757;28;20417;-64
2021/03/10 05:50:09;;;;;;;42.70;21.23;;;;;;;;;;5048867;28;20031;-64
2021/03/10 05:52:36;;;;;;;40.58;20.58;;;;;;;;;;5049663;28;20035;-64
2021/03/10 05:55:01;;;;;;;44.25;18.67;;;;;;;;;;5049902;28;20078;-64
2021/03/10 05:57:26;;;;;;;47.20;24.00;;;;;;;;;;5049543;28;20033;-64
2021/03/10 05:59:51;;;;;;;36.88;20.15;;;;;;;;;;5049810;28;20158;-64
2021/03/10 06:02:17;;;;;;;40.20;18.50;;;;;;;;;;5049944;28;20465;-64
2021/03/10 06:04:43;;;;;;;41.33;21.40;;;;;;;;;;5049686;28;20014;-64
2021/03/10 06:07:24;;;;;;;44.08;21.45;;;;;;;;;;5049815;28;20469;-64
2021/03/10 06:09:55;;;;;;;44.00;20.08;;;;;;;;;;5049724;28;20226;-64
2021/03/10 06:12:20;;;;;;;44.38;22.20;;;;;;;;;;5045726;28;20556;-64
2021/03/10 06:14:45;;;;;;;41.50;21.27;;;;;;;;;;5048655;28;20112;-64
2021/03/10 06:17:11;;;;;;;35.50;16.85;;;;;;;;;;5049027;28;20056;-64
2021/03/10 06:19:42;;;;;;;48.28;22.55;;;;;;;;;;5049594;28;20032;-64
2021/03/10 06:22:09;;;;;;;47.50;21.63;;;;;;;;;;5049528;28;20024;-64
2021/03/10 06:24:34;;;;;;;42.45;21.20;;;;;;;;;;5049506;28;20021;-64
2021/03/10 06:26:59;;;;;;;46.78;23.05;;;;;;;;;;5049246;28;20074;-64
2021/03/10 06:29:24;;;;;;;30.63;14.18;;;;;;;;;;5049516;28;20021;-64
2021/03/10 06:31:59;;;;;;;47.83;24.27;;;;;;;;;;5049509;28;20040;-64
2021/03/10 06:34:24;;;;;;;49.92;23.88;;;;;;;;;;5049352;28;20025;-64
2021/03/10 06:36:50;;;;;;;51.08;24.63;;;;;;;;;;5049606;28;20024;-64
2021/03/10 06:39:31;;;;;;;44.90;19.40;;;;;;;;;;5049275;28;20021;-64
2021/03/10 06:41:57;;;;;;;52.50;26.75;;;;;;;;;;5049669;28;20017;-64
2021/03/10 06:44:24;;;;;;;36.80;14.55;;;;;;;;;;5051315;28;20539;-64
2021/03/10 06:46:53;;;;;;;52.90;23.88;;;;;;;;;;5050694;28;20049;-64
2021/03/10 06:49:18;;;;;;;51.15;26.55;;;;;;;;;;5051117;28;20029;-64
2021/03/10 06:51:51;;;;;;;50.05;24.08;;;;;;;;;;5051246;28;20393;-64
2021/03/10 06:54:16;;;;;;;56.00;24.27;;;;;;;;;;5050653;28;20045;-64
2021/03/10 06:56:41;;;;;;;47.83;21.55;;;;;;;;;;5051436;28;20056;-64
2021/03/10 06:59:07;;;;;;;45.80;19.40;;;;;;;;;;5050243;28;20025;-64
2021/03/10 07:01:36;;;;;;;58.28;28.83;;;;;;;;;;5049915;28;20020;-64
2021/03/10 07:04:01;;;;;;;50.70;23.52;;;;;;;;;;5051203;28;20029;-64
2021/03/10 07:06:27;;;;;;;52.90;24.33;;;;;;;;;;5050490;28;20480;-64
2021/03/10 07:08:54;;;;;;;53.92;25.08;;;;;;;;;;5050353;28;20025;-64
2021/03/10 07:11:20;;;;;;;52.83;23.98;;;;;;;;;;5050043;28;20094;-64
2021/03/10 07:13:45;;;;;;;54.72;23.23;;;;;;;;;;5051231;28;20013;-64
2021/03/10 07:16:11;;;;;;;53.78;26.15;;;;;;;;;;5052465;28;20021;-64
2021/03/10 07:18:38;;;;;;;58.80;26.77;;;;;;;;;;5051952;28;20028;-64
2021/03/10 07:21:04;;;;;;;52.55;23.80;;;;;;;;;;5052464;28;20090;-64
2021/03/10 07:23:30;;;;;;;29.30;13.18;;;;;;;;;;5051859;28;20413;-64
2021/03/10 07:25:55;;;;;;;51.47;22.42;;;;;;;;;;5046552;28;20021;-64
2021/03/10 07:28:28;;;;;;;57.45;24.65;;;;;;;;;;5049432;28;20024;-64
2021/03/10 07:30:53;;;;;;;52.60;23.35;;;;;;;;;;5053218;28;20379;-64
2021/03/10 07:33:19;;;;;;;57.70;27.52;;;;;;;;;;5051840;28;20036;-62
2021/03/10 07:35:58;;;;;;;60.75;26.20;;;;;;;;;;5052420;28;20040;-64
2021/03/10 07:38:24;;;;;;;56.28;23.95;;;;;;;;;;5051553;28;20059;-65
2021/03/10 07:40:50;;;;;;;54.70;24.83;;;;;;;;;;5051843;28;20108;-64
2021/03/10 07:43:15;;;;;;;49.58;22.25;;;;;;;;;;5052503;28;20017;-63
2021/03/10 07:45:42;;;;;;;50.55;24.80;;;;;;;;;;5052666;28;20020;-64
2021/03/10 07:48:07;;;;;;;55.45;26.40;;;;;;;;;;5059156;28;20031;-64
2021/03/10 07:50:37;;;;;;;50.92;25.17;;;;;;;;;;5072142;28;20469;-63
2021/03/10 07:53:02;;;;;;;56.23;26.10;;;;;;;;;;5053615;28;20012;-64
2021/03/10 07:55:27;;;;;;;51.03;23.52;;;;;;;;;;5052046;28;20028;-64
2021/03/10 07:57:53;;;;;;;42.60;17.88;;;;;;;;;;5052114;28;20025;-65
2021/03/10 08:00:19;;;;;;;34.20;14.98;;;;;;;;;;5051705;28;20048;-64
2021/03/10 08:02:46;;;;;;;44.33;19.55;;;;;;;;;;5048251;28;20555;-64
2021/03/10 08:05:24;;;;;;;40.05;18.88;;;;;;;;;;5049998;28;20076;-64
2021/03/10 08:08:04;;;;;;;54.83;24.17;;;;;;;;;;5048468;28;20036;-64
2021/03/10 08:10:29;;;;;;;47.10;21.58;;;;;;;;;;5049617;28;20461;-64
2021/03/10 08:12:54;;;;;;;46.08;17.13;;;;;;;;;;5049602;28;20021;-64
2021/03/10 08:15:20;;;;;;;53.28;26.10;;;;;;;;;;5050312;28;20114;-64
2021/03/10 08:17:46;;;;;;;56.22;26.63;;;;;;;;;;5051039;28;20534;-64
2021/03/10 08:20:11;;;;;;;36.80;16.25;;;;;;;;;;5048812;28;20029;-64
2021/03/10 08:22:37;;;;;;;57.00;24.35;;;;;;;;;;5050406;28;20025;-64
2021/03/10 08:25:04;;;;;;;41.92;19.58;;;;;;;;;;5049965;28;20397;-64
2021/03/10 08:27:30;;;;;;;59.92;26.10;;;;;;;;;;5050213;28;20063;-64
2021/03/10 08:29:55;;;;;;;50.17;20.13;;;;;;;;;;5050058;28;20041;-64
2021/03/10 08:32:24;;;;;;;44.60;20.33;;;;;;;;;;5050577;28;20025;-64
2021/03/10 08:34:49;;;;;;;41.53;17.38;;;;;;;;;;5050740;28;20436;-64
2021/03/10 08:37:15;;;;;;;51.47;24.02;;;;;;;;;;5050623;28;20017;-64
2021/03/10 08:39:47;;;;;;;21.52;8.85;;;;;;;;;;5037005;28;20052;-64
2021/03/10 08:42:22;;;;;;;29.80;10.80;;;;;;;;;;5050429;28;20023;-64
2021/03/10 08:44:48;;;;;;;34.33;14.43;;;;;;;;;;5050505;28;20071;-64
2021/03/10 08:47:15;;;;;;;49.85;23.27;;;;;;;;;;5050519;28;20430;-64
2021/03/10 08:49:42;;;;;;;41.80;18.48;;;;;;;;;;5050284;28;20436;-63
2021/03/10 08:52:09;;;;;;;27.83;12.90;;;;;;;;;;5050806;28;20020;-65
2021/03/10 08:54:44;;;;;;;52.30;22.70;;;;;;;;;;5050363;28;20287;-65
2021/03/10 08:57:09;;;;;;;55.28;24.60;;;;;;;;;;5050412;28;20086;-65
2021/03/10 08:59:35;;;;;;;37.92;16.20;;;;;;;;;;5050429;28;20465;-65
2021/03/10 09:02:00;;;;;;;46.10;17.65;;;;;;;;;;5050999;28;20378;-67
2021/03/10 09:04:26;;;;;;;32.67;16.20;;;;;;;;;;5050485;28;20096;-65
2021/03/10 09:06:52;;;;;;;42.95;17.23;;;;;;;;;;5050186;28;20017;-65
2021/03/10 09:09:18;;;;;;;47.60;19.90;;;;;;;;;;5049568;28;20535;-65
2021/03/10 09:11:43;;;;;;;44.80;20.20;;;;;;;;;;5043289;28;20028;-65
2021/03/10 09:14:08;;;;;;;37.92;13.38;;;;;;;;;;5050244;28;20387;-65
2021/03/10 09:16:33;;;;;;;41.22;18.13;;;;;;;;;;5050508;28;20028;-65
2021/03/10 09:18:59;;;;;;;24.90;10.70;;;;;;;;;;5049814;28;20385;-65
2021/03/10 09:21:24;;;;;;;42.78;17.90;;;;;;;;;;5049992;28;20028;-65
2021/03/10 09:23:59;;;;;;;37.90;17.58;;;;;;;;;;5050227;28;20107;-65
2021/03/10 09:26:33;;;;;;;47.47;22.38;;;;;;;;;;5047947;28;20090;-65
2021/03/10 09:29:02;;;;;;;55.83;24.33;;;;;;;;;;5049532;28;20021;-65
2021/03/10 09:31:27;;;;;;;37.60;15.40;;;;;;;;;;5050130;28;20541;-65
2021/03/10 09:33:57;;;;;;;35.67;15.85;;;;;;;;;;5042634;28;20039;-65
2021/03/10 09:36:23;;;;;;;29.00;11.77;;;;;;;;;;5049549;28;20024;-65
2021/03/10 09:38:51;;;;;;;43.78;20.27;;;;;;;;;;5049164;28;20425;-63
2021/03/10 09:41:22;;;;;;;38.38;17.08;;;;;;;;;;5050172;28;20465;-65
2021/03/10 09:43:47;;;;;;;41.53;17.63;;;;;;;;;;5049695;28;20104;-65
2021/03/10 09:46:12;;;;;;;44.75;20.05;;;;;;;;;;5050530;28;20044;-63
2021/03/10 09:48:39;;;;;;;32.75;13.60;;;;;;;;;;5049380;28;20469;-63
2021/03/10 09:51:08;;;;;;;37.50;16.42;;;;;;;;;;5049957;28;20017;-63
2021/03/10 09:53:36;;;;;;;39.03;16.47;;;;;;;;;;5049968;28;20024;-63
2021/03/10 09:56:05;;;;;;;41.50;15.95;;;;;;;;;;5049878;28;20028;-63
2021/03/10 09:58:31;;;;;;;49.35;20.83;;;;;;;;;;5049750;28;20107;-63
2021/03/10 10:01:00;;;;;;;45.70;21.95;;;;;;;;;;5049427;28;20518;-63
2021/03/10 10:03:26;;;;;;;59.58;25.85;;;;;;;;;;5031231;28;20017;-63
2021/03/10 10:05:51;;;;;;;44.88;20.30;;;;;;;;;;5046621;28;20009;-63
2021/03/10 10:08:16;;;;;;;44.20;17.45;;;;;;;;;;5049433;28;20378;-65
2021/03/10 10:10:42;;;;;;;35.58;16.70;;;;;;;;;;5049462;28;20017;-63
2021/03/10 10:13:07;;;;;;;45.13;19.02;;;;;;;;;;5050172;28;20469;-63
2021/03/10 10:15:33;;;;;;;54.80;26.17;;;;;;;;;;5049571;28;20028;-63
2021/03/10 10:18:00;;;;;;;44.20;17.83;;;;;;;;;;5051542;28;20481;-63
2021/03/10 10:20:27;;;;;;;53.35;22.60;;;;;;;;;;5054088;28;20029;-63
2021/03/10 10:22:52;;;;;;;55.22;25.52;;;;;;;;;;5054903;28;20021;-64
2021/03/10 10:25:18;;;;;;;34.13;15.75;;;;;;;;;;5052640;28;20021;-64
2021/03/10 10:27:44;;;;;;;40.45;14.68;;;;;;;;;;5055920;28;20013;-64
2021/03/10 10:30:10;;;;;;;41.97;16.98;;;;;;;;;;5058509;28;20155;-62
2021/03/10 10:32:35;;;;;;;50.42;21.95;;;;;;;;;;5055778;28;20075;-63
2021/03/10 10:35:00;;;;;;;34.80;14.07;;;;;;;;;;5054945;28;20044;-63
2021/03/10 10:37:25;;;;;;;28.73;13.88;;;;;;;;;;5054360;28;20478;-62
2021/03/10 10:39:50;;;;;;;40.15;19.38;;;;;;;;;;5054708;28;20079;-63
2021/03/10 10:42:16;;;;;;;49.47;23.65;;;;;;;;;;5047364;28;21870;-64
2021/03/10 10:44:41;;;;;;;27.52;12.48;;;;;;;;;;5057524;28;20035;-64
2021/03/10 10:47:07;;;;;;;41.83;18.73;;;;;;;;;;5055163;28;20484;-64
2021/03/10 10:49:32;;;;;;;42.63;20.00;;;;;;;;;;5055548;28;20029;-64
2021/03/10 10:51:57;;;;;;;51.78;27.50;;;;;;;;;;5039314;28;20021;-63
2021/03/10 10:54:23;;;;;;;54.65;22.98;;;;;;;;;;5044537;28;20013;-63
2021/03/10 10:56:49;;;;;;;50.78;25.88;;;;;;;;;;5054803;28;20032;-64
2021/03/10 10:59:14;;;;;;;50.33;24.30;;;;;;;;;;5052941;28;20016;-64
2021/03/10 11:01:39;;;;;;;53.65;26.38;;;;;;;;;;5053250;28;20385;-65
2021/03/10 11:04:04;;;;;;;49.45;23.77;;;;;;;;;;5052029;28;20020;-62
2021/03/10 11:06:29;;;;;;;46.47;18.23;;;;;;;;;;5052719;28;20102;-63
2021/03/10 11:08:55;;;;;;;47.77;22.10;;;;;;;;;;5052457;28;20287;-63
2021/03/10 11:11:20;;;;;;;50.53;23.15;;;;;;;;;;5052412;28;20263;-63
2021/03/10 11:13:45;;;;;;;50.22;22.27;;;;;;;;;;5054388;28;20082;-63
2021/03/10 11:16:10;;;;;;;50.75;25.95;;;;;;;;;;5053105;28;20056;-63
2021/03/10 11:18:35;;;;;;;43.58;17.48;;;;;;;;;;5052706;28;20440;-63
2021/03/10 11:21:01;;;;;;;52.93;24.77;;;;;;;;;;5051385;28;20457;-65
2021/03/10 11:23:26;;;;;;;45.67;20.67;;;;;;;;;;5048822;28;20272;-63
2021/03/10 11:25:51;;;;;;;40.00;15.80;;;;;;;;;;5045498;28;20025;-63
2021/03/10 11:28:16;;;;;;;36.65;14.57;;;;;;;;;;5057157;28;20023;-63
2021/03/10 11:30:41;;;;;;;35.40;16.92;;;;;;;;;;5049863;28;20029;-63
2021/03/10 11:33:07;;;;;;;39.83;18.13;;;;;;;;;;5051972;28;20381;-63
2021/03/10 11:35:32;;;;;;;50.30;22.48;;;;;;;;;;5052001;28;20497;-62
2021/03/10 11:37:57;;;;;;;31.98;15.07;;;;;;;;;;5051852;28;20025;-62
2021/03/10 11:40:22;;;;;;;46.67;22.77;;;;;;;;;;5051383;28;20024;-63
2021/03/10 11:42:47;;;;;;;37.67;17.45;;;;;;;;;;5069021;28;20111;-63
2021/03/10 11:45:13;;;;;;;39.72;19.80;;;;;;;;;;5056825;28;20138;-63
2021/03/10 11:47:38;;;;;;;43.33;20.85;;;;;;;;;;5052376;28;20412;-63
2021/03/10 11:50:04;;;;;;;42.03;18.13;;;;;;;;;;5050256;28;20017;-63
2021/03/10 11:52:29;;;;;;;37.30;16.05;;;;;;;;;;5052065;28;20807;-63
2021/03/10 11:54:54;;;;;;;27.73;10.77;;;;;;;;;;5051695;28;20024;-63
2021/03/10 11:57:19;;;;;;;43.17;20.05;;;;;;;;;;5050978;28;20496;-63
2021/03/10 11:59:45;;;;;;;48.13;24.95;;;;;;;;;;5051355;28;20060;-63
2021/03/10 12:02:10;;;;;;;50.35;24.60;;;;;;;;;;5053459;28;20021;-64
2021/03/10 12:04:35;;;;;;;35.75;14.23;;;;;;;;;;5053282;28;20029;-64
2021/03/10 12:07:00;;;;;;;40.83;17.27;;;;;;;;;;5051583;28;20382;-62
2021/03/10 12:09:26;;;;;;;28.67;12.85;;;;;;;;;;5051117;28;20024;-63
2021/03/10 12:11:51;;;;;;;41.15;19.10;;;;;;;;;;5052058;28;20445;-63
2021/03/10 12:14:16;;;;;;;31.15;14.60;;;;;;;;;;5050466;28;20025;-63
2021/03/10 12:16:41;;;;;;;24.45;11.52;;;;;;;;;;5048281;28;20062;-63
2021/03/10 12:19:07;;;;;;;31.70;13.73;;;;;;;;;;5048649;28;20036;-63
2021/03/10 12:21:32;;;;;;;39.58;16.90;;;;;;;;;;5049523;28;20033;-63
2021/03/10 12:23:58;;;;;;;27.73;13.07;;;;;;;;;;5050508;28;20406;-62
2021/03/10 12:26:24;;;;;;;38.08;20.95;;;;;;;;;;5050089;28;20039;-63
2021/03/10 12:28:49;;;;;;;27.50;15.30;;;;;;;;;;5050618;28;20448;-63
2021/03/10 12:31:14;;;;;;;38.60;18.88;;;;;;;;;;5051816;28;20047;-63
2021/03/10 12:33:39;;;;;;;38.22;19.02;;;;;;;;;;5045117;28;20029;-64
2021/03/10 12:36:04;;;;;;;34.80;13.43;;;;;;;;;;5053838;28;20028;-63
2021/03/10 12:38:30;;;;;;;25.20;12.50;;;;;;;;;;5050663;28;20825;-62
2021/03/10 12:40:55;;;;;;;26.50;11.88;;;;;;;;;;5050363;28;20021;-63
2021/03/10 12:43:20;;;;;;;27.73;12.07;;;;;;;;;;5050360;28;20359;-63
2021/03/10 12:45:46;;;;;;;37.92;15.68;;;;;;;;;;5048664;28;20365;-63
2021/03/10 12:48:11;;;;;;;37.05;14.35;;;;;;;;;;5047576;28;20024;-63
2021/03/10 12:50:36;;;;;;;28.92;14.15;;;;;;;;;;5049475;28;20056;-64
2021/03/10 12:53:02;;;;;;;35.40;12.38;;;;;;;;;;5050138;28;20021;-63
2021/03/10 12:55:27;;;;;;;27.90;11.57;;;;;;;;;;5050605;28;20021;-63
2021/03/10 12:57:52;;;;;;;28.77;16.02;;;;;;;;;;5050486;28;20492;-62
2021/03/10 13:00:18;;;;;;;17.35;6.15;;;;;;;;;;5051134;28;20470;-64
2021/03/10 13:02:46;;;;;;;28.90;14.68;;;;;;;;;;5032576;28;20029;-63
2021/03/10 13:05:12;;;;;;;39.92;15.73;;;;;;;;;;5050817;28;20342;-63
2021/03/10 13:07:37;;;;;;;35.75;16.92;;;;;;;;;;5050123;28;20095;-62
2021/03/10 13:10:02;;;;;;;33.35;13.95;;;;;;;;;;5049895;28;20079;-63
2021/03/10 13:12:31;;;;;;;31.95;15.75;;;;;;;;;;5050284;28;20017;-63
2021/03/10 13:14:56;;;;;;;29.08;13.02;;;;;;;;;;5049678;28;20488;-64
2021/03/10 13:17:21;;;;;;;26.93;15.03;;;;;;;;;;5048457;28;20100;-64
2021/03/10 13:19:46;;;;;;;30.92;14.18;;;;;;;;;;5049913;28;20283;-63
2021/03/10 13:22:12;;;;;;;21.63;11.07;;;;;;;;;;5049733;28;20385;-62
2021/03/10 13:24:37;;;;;;;22.40;7.78;;;;;;;;;;5050179;28;20046;-64
2021/03/10 13:27:02;;;;;;;20.65;8.93;;;;;;;;;;5048855;28;20025;-63
2021/03/10 13:29:27;;;;;;;10.75;5.70;;;;;;;;;;5046911;28;20017;-64
2021/03/10 13:31:53;;;;;;;15.80;7.83;;;;;;;;;;5049006;28;20025;-64
2021/03/10 13:34:19;;;;;;;11.73;5.60;;;;;;;;;;5050299;28;20295;-64
2021/03/10 13:36:45;;;;;;;18.77;8.98;;;;;;;;;;5049855;28;20016;-64
2021/03/10 13:39:10;;;;;;;15.27;7.82;;;;;;;;;;5050062;28;20390;-64
2021/03/10 13:41:35;;;;;;;17.30;6.47;;;;;;;;;;5048951;28;20029;-64
2021/03/10 13:44:00;;;;;;;14.52;5.65;;;;;;;;;;5047659;28;20028;-64
2021/03/10 13:46:25;;;;;;;18.77;8.07;;;;;;;;;;5045628;28;20013;-64
2021/03/10 13:48:51;;;;;;;21.08;9.98;;;;;;;;;;5049537;28;20021;-64
2021/03/10 13:51:16;;;;;;;17.20;7.90;;;;;;;;;;5049186;28;20044;-64
2021/03/10 13:53:41;;;;;;;19.30;8.57;;;;;;;;;;5049795;28;20393;-64
2021/03/10 13:56:06;;;;;;;22.45;10.75;;;;;;;;;;5049323;28;20025;-64
2021/03/10 13:58:32;;;;;;;15.63;6.93;;;;;;;;;;5049294;28;20033;-64
2021/03/10 14:00:57;;;;;;;13.45;6.03;;;;;;;;;;5048247;28;20035;-64
2021/03/10 14:03:22;;;;;;;14.75;7.22;;;;;;;;;;5048725;28;20368;-64
2021/03/10 14:05:49;;;;;;;21.42;10.98;;;;;;;;;;5049546;28;20511;-64
2021/03/10 14:08:14;;;;;;;22.90;11.80;;;;;;;;;;5049310;28;20052;-64
2021/03/10 14:10:39;;;;;;;16.05;8.80;;;;;;;;;;5049476;28;20067;-64
2021/03/10 14:13:05;;;;;;;25.83;10.93;;;;;;;;;;5054483;28;20393;-64